MSC Clorinda — 3FDW7 — position and weather

sailwx.info

Track history (hours):
 
Tides and Currents Weather Stations Pressure Air Temp Water Temp Dewpoint Dewpoint Depression Visibility Wind Speed Wind Dir Waves Ship Positions

MSC Clorinda

Last reported at 2014-Sep-23 02:28 UTC. Time now 2014-Sep-23 10:26 UTC.
Position N 38°42' E 008°14'.

Length 366 m; draft 13.4 m.

Type: Ship (hazmat cat A). MMSI: 373233000.

Date/timePositionNaut miles runAvg speedWind from/ knotsBaromVisibWave heightAir tempDewpointWater temp
2014-Sep-23 02:28N 38°42' E 008°14'1516.8
2014-Sep-23 01:33N 38°41' E 008°33'1716.6
2014-Sep-23 00:32N 38°40' E 008°55'1716.9
2014-Sep-22 23:33N 38°39' E 009°16'1716.8
2014-Sep-22 22:34N 38°38' E 009°37'1816.6
2014-Sep-22 21:27N 38°36' E 010°01'1516.6
2014-Sep-22 20:33N 38°35' E 010°20'1717.0
2014-Sep-22 19:33N 38°34' E 010°42'1717.1
2014-Sep-22 18:33N 38°33' E 011°03'2117.1
2014-Sep-22 17:18N 38°31' E 011°31'1416.9
2014-Sep-22 16:28N 38°30' E 011°49'2216.5
2014-Sep-22 15:09N 38°28' E 012°16'1216.1
2014-Sep-22 14:26N 38°28' E 012°31'1416.1
2014-Sep-22 13:33N 38°27' E 012°49'1616.4
2014-Sep-22 12:33N 38°25' E 013°10'1716.7
2014-Sep-22 11:33N 38°24' E 013°31'1716.8
2014-Sep-22 10:33N 38°23' E 013°52'1716.7
2014-Sep-22 09:34N 38°22' E 014°14'1717.0
2014-Sep-22 08:33N 38°20' E 014°35'  
2014-Sep-19 12:22N 34°21' E 025°11'  
Track history (hours):
 
Tides and Currents Weather Stations Pressure Air Temp Water Temp Dewpoint Dewpoint Depression Visibility Wind Speed Wind Dir Waves Ship Positions

MSC Clorinda

Last reported at 2014-Sep-23 02:28 UTC. Time now 2014-Sep-23 10:26 UTC.
Position N 38°42' E 008°14'.

Length 366 m; draft 13.4 m.

Type: Ship (hazmat cat A). MMSI: 373233000.

Date/timePositionNaut miles runAvg speedWind from/ knotsBaromVisibWave heightAir tempDewpointWater temp
2014-Sep-23 02:28N 38°42' E 008°14'1516.8
2014-Sep-23 01:33N 38°41' E 008°33'1716.6
2014-Sep-23 00:32N 38°40' E 008°55'1716.9
2014-Sep-22 23:33N 38°39' E 009°16'1716.8
2014-Sep-22 22:34N 38°38' E 009°37'1816.6
2014-Sep-22 21:27N 38°36' E 010°01'1516.6
2014-Sep-22 20:33N 38°35' E 010°20'1717.0
2014-Sep-22 19:33N 38°34' E 010°42'1717.1
2014-Sep-22 18:33N 38°33' E 011°03'2117.1
2014-Sep-22 17:18N 38°31' E 011°31'1416.9
2014-Sep-22 16:28N 38°30' E 011°49'2216.5
2014-Sep-22 15:09N 38°28' E 012°16'1216.1
2014-Sep-22 14:26N 38°28' E 012°31'1416.1
2014-Sep-22 13:33N 38°27' E 012°49'1616.4
2014-Sep-22 12:33N 38°25' E 013°10'1716.7
2014-Sep-22 11:33N 38°24' E 013°31'1716.8
2014-Sep-22 10:33N 38°23' E 013°52'1716.7
2014-Sep-22 09:34N 38°22' E 014°14'1717.0
2014-Sep-22 08:33N 38°20' E 014°35'  
2014-Sep-19 12:22N 34°21' E 025°11'  

Dump ship's entire track history